Map

Track Data

SID SEASON NUMBER BASIN SUBBASIN NAME ISO_TIME NATURE LAT LON WMO_WIND WMO_PRES WMO_AGENCY TRACK_TYPE DIST2LAND LANDFALL IFLAG USA_AGENCY USA_ATCF_ID USA_LAT USA_LON USA_RECORD USA_STATUS USA_WIND USA_PRES USA_SSHS USA_R34_NE USA_R34_SE USA_R34_SW USA_R34_NW USA_R50_NE USA_R50_SE USA_R50_SW USA_R50_NW USA_R64_NE USA_R64_SE USA_R64_SW USA_R64_NW USA_POCI USA_ROCI USA_RMW USA_EYE TOKYO_LAT TOKYO_LON TOKYO_GRADE TOKYO_WIND TOKYO_PRES TOKYO_R50_DIR TOKYO_R50_LONG TOKYO_R50_SHORT TOKYO_R30_DIR TOKYO_R30_LONG TOKYO_R30_SHORT TOKYO_LAND CMA_LAT CMA_LON CMA_CAT CMA_WIND CMA_PRES HKO_LAT HKO_LON HKO_CAT HKO_WIND HKO_PRES NEWDELHI_LAT NEWDELHI_LON NEWDELHI_GRADE NEWDELHI_WIND NEWDELHI_PRES NEWDELHI_CI NEWDELHI_DP NEWDELHI_POCI REUNION_LAT REUNION_LON REUNION_TYPE REUNION_WIND REUNION_PRES REUNION_TNUM REUNION_CI REUNION_RMW REUNION_R34_NE REUNION_R34_SE REUNION_R34_SW REUNION_R34_NW REUNION_R50_NE REUNION_R50_SE REUNION_R50_SW REUNION_R50_NW REUNION_R64_NE REUNION_R64_SE REUNION_R64_SW REUNION_R64_NW BOM_LAT BOM_LON BOM_TYPE BOM_WIND BOM_PRES BOM_TNUM BOM_CI BOM_RMW BOM_R34_NE BOM_R34_SE BOM_R34_SW BOM_R34_NW BOM_R50_NE BOM_R50_SE BOM_R50_SW BOM_R50_NW BOM_R64_NE BOM_R64_SE BOM_R64_SW BOM_R64_NW BOM_ROCI BOM_POCI BOM_EYE BOM_POS_METHOD BOM_PRES_METHOD NADI_LAT NADI_LON NADI_CAT NADI_WIND NADI_PRES WELLINGTON_LAT WELLINGTON_LON WELLINGTON_WIND WELLINGTON_PRES DS824_LAT DS824_LON DS824_STAGE DS824_WIND DS824_PRES TD9636_LAT TD9636_LON TD9636_STAGE TD9636_WIND TD9636_PRES TD9635_LAT TD9635_LON TD9635_WIND TD9635_PRES TD9635_ROCI NEUMANN_LAT NEUMANN_LON NEUMANN_CLASS NEUMANN_WIND NEUMANN_PRES MLC_LAT MLC_LON MLC_CLASS MLC_WIND MLC_PRES USA_GUST BOM_GUST BOM_GUST_PER REUNION_GUST REUNION_GUST_PER USA_SEAHGT USA_SEARAD_NE USA_SEARAD_SE USA_SEARAD_SW USA_SEARAD_NW STORM_SPEED STORM_DIR
1898249N11333 1898 37 NA NA NOT_NAMED 1898-09-05 12:00:00 TS 11.2000 -26.9000 35 hurdat_atl main 1091 1091 O_____________ hurdat_atl AL041898 11.2000 -26.9000 TS 35 0 21 276
1898249N11333 1898 37 NA NA NOT_NAMED 1898-09-05 15:00:00 TS 11.3107 -27.9548 main 1200 1200 P_____________ AL041898 11.3107 -27.9548 TS 35 0 21 276
1898249N11333 1898 37 NA NA NOT_NAMED 1898-09-05 18:00:00 TS 11.4000 -29.0000 35 hurdat_atl main 1299 1299 O_____________ hurdat_atl AL041898 11.4000 -29.0000 TS 35 0 20 274
1898249N11333 1898 37 NA NA NOT_NAMED 1898-09-05 21:00:00 TS 11.4572 -30.0226 main 1400 1400 P_____________ AL041898 11.4572 -30.0226 TS 37 0 20 273
1898249N11333 1898 37 NA NA NOT_NAMED 1898-09-06 00:00:00 TS 11.5000 -31.0000 40 hurdat_atl main 1505 1505 O_____________ hurdat_atl AL041898 11.5000 -31.0000 TS 40 0 19 273
1898249N11333 1898 37 NA NA NOT_NAMED 1898-09-06 03:00:00 TS 11.5497 -31.9300 main 1600 1600 P_____________ AL041898 11.5497 -31.9300 TS 42 0 18 273
1898249N11333 1898 37 NA NA NOT_NAMED 1898-09-06 06:00:00 TS 11.6000 -32.8000 45 hurdat_atl main 1693 1693 O_____________ hurdat_atl AL041898 11.6000 -32.8000 TS 45 0 17 274
1898249N11333 1898 37 NA NA NOT_NAMED 1898-09-06 09:00:00 TS 11.6573 -33.6299 main 1773 1741 P_____________ AL041898 11.6573 -33.6299 TS 50 0 16 274
1898249N11333 1898 37 NA NA NOT_NAMED 1898-09-06 12:00:00 TS 11.7000 -34.4000 55 hurdat_atl main 1741 1716 O_____________ hurdat_atl AL041898 11.7000 -34.4000 TS 55 0 15 272
1898249N11333 1898 37 NA NA NOT_NAMED 1898-09-06 15:00:00 TS 11.7072 -35.1151 main 1716 1694 P_____________ AL041898 11.7072 -35.1151 TS 60 0 14 270
1898249N11333 1898 37 NA NA NOT_NAMED 1898-09-06 18:00:00 TS 11.7000 -35.8000 65 hurdat_atl main 1694 1676 O_____________ hurdat_atl AL041898 11.7000 -35.8000 HU 65 1 14 269
1898249N11333 1898 37 NA NA NOT_NAMED 1898-09-06 21:00:00 TS 11.6924 -36.5075 main 1676 1660 P_____________ AL041898 11.6924 -36.5075 HU 67 1 14 270
1898249N11333 1898 37 NA NA NOT_NAMED 1898-09-07 00:00:00 TS 11.7000 -37.2000 70 hurdat_atl main 1660 1650 O_____________ hurdat_atl AL041898 11.7000 -37.2000 HU 70 1 13 272
1898249N11333 1898 37 NA NA NOT_NAMED 1898-09-07 03:00:00 TS 11.7422 -37.8500 main 1650 1640 P_____________ AL041898 11.7422 -37.8500 HU 72 1 13 274
1898249N11333 1898 37 NA NA NOT_NAMED 1898-09-07 06:00:00 TS 11.8000 -38.5000 75 hurdat_atl main 1640 1584 O_____________ hurdat_atl AL041898 11.8000 -38.5000 HU 75 1 13 275
1898249N11333 1898 37 NA NA NOT_NAMED 1898-09-07 09:00:00 TS 11.8573 -39.1850 main 1580 1516 P_____________ AL041898 11.8573 -39.1850 HU 77 1 14 274
1898249N11333 1898 37 NA NA NOT_NAMED 1898-09-07 12:00:00 TS 11.9000 -39.9000 80 hurdat_atl main 1516 1453 O_____________ hurdat_atl AL041898 11.9000 -39.9000 HU 80 1 14 272
1898249N11333 1898 37 NA NA NOT_NAMED 1898-09-07 15:00:00 TS 11.8998 -40.6351 main 1453 1383 P_____________ AL041898 11.8998 -40.6351 HU 80 1 15 270
1898249N11333 1898 37 NA NA NOT_NAMED 1898-09-07 18:00:00 TS 11.9000 -41.4000 80 hurdat_atl main 1383 1323 O_____________ hurdat_atl AL041898 11.9000 -41.4000 HU 80 1 15 272
1898249N11333 1898 37 NA NA NOT_NAMED 1898-09-07 21:00:00 TS 11.9498 -42.1924 main 1314 1256 P_____________ AL041898 11.9498 -42.1924 HU 82 1 16 274
1898249N11333 1898 37 NA NA NOT_NAMED 1898-09-08 00:00:00 TS 12.0000 -43.0000 85 hurdat_atl main 1256 1194 O_____________ hurdat_atl AL041898 12.0000 -43.0000 HU 85 2 16 272
1898249N11333 1898 37 NA NA NOT_NAMED 1898-09-08 03:00:00 TS 12.0073 -43.8001 main 1194 1134 P_____________ AL041898 12.0073 -43.8001 HU 85 2 16 270
1898249N11333 1898 37 NA NA NOT_NAMED 1898-09-08 06:00:00 TS 12.0000 -44.6000 85 hurdat_atl main 1134 1079 O_____________ hurdat_atl AL041898 12.0000 -44.6000 HU 85 2 16 270
1898249N11333 1898 37 NA NA NOT_NAMED 1898-09-08 09:00:00 TS 11.9998 -45.4075 main 1079 1029 P_____________ AL041898 11.9998 -45.4075 HU 85 2 16 270
1898249N11333 1898 37 NA NA NOT_NAMED 1898-09-08 12:00:00 TS 12.0000 -46.2000 85 hurdat_atl main 1029 986 O_____________ hurdat_atl AL041898 12.0000 -46.2000 HU 85 2 15 270
1898249N11333 1898 37 NA NA NOT_NAMED 1898-09-08 15:00:00 TS 11.9998 -46.9650 main 979 933 P_____________ AL041898 11.9998 -46.9650 HU 85 2 15 270
1898249N11333 1898 37 NA NA NOT_NAMED 1898-09-08 18:00:00 TS 12.0000 -47.7000 85 hurdat_atl main 933 890 O_____________ hurdat_atl AL041898 12.0000 -47.7000 HU 85 2 14 270
1898249N11333 1898 37 NA NA NOT_NAMED 1898-09-08 21:00:00 TS 11.9999 -48.4225 main 890 853 P_____________ AL041898 11.9999 -48.4225 HU 85 2 14 270
1898249N11333 1898 37 NA NA NOT_NAMED 1898-09-09 00:00:00 TS 12.0000 -49.1000 85 hurdat_atl main 853 824 O_____________ hurdat_atl AL041898 12.0000 -49.1000 HU 85 2 13 270
1898249N11333 1898 37 NA NA NOT_NAMED 1898-09-09 03:00:00 TS 11.9998 -49.7150 main 824 799 P_____________ AL041898 11.9998 -49.7150 HU 85 2 12 270
1898249N11333 1898 37 NA NA NOT_NAMED 1898-09-09 06:00:00 TS 12.0000 -50.3000 85 hurdat_atl main 799 773 O_____________ hurdat_atl AL041898 12.0000 -50.3000 HU 85 2 12 270
1898249N11333 1898 37 NA NA NOT_NAMED 1898-09-09 09:00:00 TS 11.9999 -50.9075 main 773 758 P_____________ AL041898 11.9999 -50.9075 HU 85 2 7 261
1898249N11333 1898 37 NA NA NOT_NAMED 1898-09-09 12:00:00 TS 11.8889 -51.0556 85 hurdat_atl main 753 733 O____________O hurdat_atl AL041898 12.0000 -51.5000 HU 85 2 11.0000 -47.5000 TS 35 4 244
1898249N11333 1898 37 NA NA NOT_NAMED 1898-09-09 15:00:00 TS 11.8158 -51.2940 main 733 720 P____________P AL041898 11.9921 -52.0276 HU 85 2 11.1105 -48.3598 TS 40 6 260
1898249N11333 1898 37 NA NA NOT_NAMED 1898-09-09 18:00:00 TS 11.7818 -51.6727 85 hurdat_atl main 715 696 O____________O hurdat_atl AL041898 12.0000 -52.6000 HU 85 2 11.2000 -49.2000 TS 45 9 268
1898249N11333 1898 37 NA NA NOT_NAMED 1898-09-09 21:00:00 TS 11.7808 -52.2159 main 696 673 P____________P AL041898 12.0425 -53.3200 HU 85 2 11.2572 -50.0076 TS 50 13 272
1898249N11333 1898 37 NA NA NOT_NAMED 1898-09-10 00:00:00 TS 11.8333 -53.0000 85 hurdat_atl main 673 670 O____________O hurdat_atl AL041898 12.1000 -54.1000 HU 85 2 11.3000 -50.8000 TS 55 15 274
1898249N11333 1898 37 NA NA NOT_NAMED 1898-09-10 03:00:00 TS 11.8832 -53.7717 main 673 658 P____________P AL041898 12.1499 -54.8575 HU 85 2 11.3498 -51.6000 TS 60 15 274
1898249N11333 1898 37 NA NA NOT_NAMED 1898-09-10 06:00:00 TS 11.9333 -54.5333 85 hurdat_atl main 658 611 O____________O hurdat_atl AL041898 12.2000 -55.6000 HU 85 2 11.4000 -52.4000 HU 65 15 274
1898249N11333 1898 37 NA NA NOT_NAMED 1898-09-10 09:00:00 TS 11.9832 -55.2892 main 604 555 P____________P AL041898 12.2575 -56.3374 HU 85 2 11.4347 -53.1927 HU 70 14 274
1898249N11333 1898 37 NA NA NOT_NAMED 1898-09-10 12:00:00 TS 12.0333 -56.0000 85 hurdat_atl main 555 504 O____________O hurdat_atl AL041898 12.3000 -57.0000 HU 85 2 11.5000 -54.0000 HU 75 13 274
1898249N11333 1898 37 NA NA NOT_NAMED 1898-09-10 15:00:00 TS 12.0731 -56.6417 main 504 443 P____________P AL041898 12.2923 -57.5376 HU 87 2 11.6349 -54.8499 HU 80 12 275
1898249N11333 1898 37 NA NA NOT_NAMED 1898-09-10 18:00:00 TS 12.1333 -57.2333 90 hurdat_atl main 443 387 O____________O hurdat_atl AL041898 12.3000 -58.0000 HU 90 2 11.8000 -55.7000 HU 85 12 278
1898249N11333 1898 37 NA NA NOT_NAMED 1898-09-10 21:00:00 TS 12.2398 -57.8075 main 387 344 P____________P AL041898 12.3849 -58.4575 HU 92 2 11.9497 -56.5076 HU 87 11 282
1898249N11333 1898 37 NA NA NOT_NAMED 1898-09-11 00:00:00 TS 12.3667 -58.3667 95 hurdat_atl main 341 305 O____________O hurdat_atl AL041898 12.5000 -58.9000 HU 95 2 12.1000 -57.3000 HU 90 11 282
1898249N11333 1898 37 NA NA NOT_NAMED 1898-09-11 03:00:00 TS 12.4782 -58.9334 main 305 268 P____________P AL041898 12.5924 -59.3501 HU 95 2 12.2498 -58.1001 HU 95 11 282
1898249N11333 1898 37 NA CS NOT_NAMED 1898-09-11 06:00:00 TS 12.6000 -59.5000 95 hurdat_atl main 268 244 O____________O hurdat_atl AL041898 12.7000 -59.8000 HU 95 2 12.4000 -58.9000 MH 100 12 282
1898249N11333 1898 37 NA CS NOT_NAMED 1898-09-11 09:00:00 TS 12.7150 -60.0868 main 244 240 P____________P AL041898 12.8200 -60.2576 HU 95 2 12.5051 -59.7453 MH 100 11 285
1898249N11333 1898 37 NA CS NOT_NAMED 1898-09-11 12:00:00 TS 12.9000 -60.6333 95 hurdat_atl main 250 248 O____________O hurdat_atl AL041898 13.0000 -60.7000 HU 95 2 12.7000 -60.5000 MH 100 11 297
1898249N11333 1898 37 NA CS NOT_NAMED 1898-09-11 15:00:00 TS 13.2048 -61.0917 main 279 279 P____________P AL041898 13.2549 -61.1151 HU 95 2 13.1046 -61.0450 MH 102 11 310
1898249N11333 1898 37 NA CS NOT_NAMED 1898-09-11 18:00:00 TS 13.6000 -61.5000 95 965 hurdat_atl main 324 324 O____________O hurdat_atl AL041898 13.6000 -61.5000 HU 95 965 2 13.6000 -61.5000 MH 105 965 12 315
1898249N11333 1898 37 NA CS NOT_NAMED 1898-09-11 21:00:00 TS 14.0200 -61.9275 main 370 370 P____________P AL041898 14.0050 -61.8651 HU 95 2 14.0501 -62.0524 MH 105 12 319
1898249N11333 1898 37 NA CS NOT_NAMED 1898-09-12 00:00:00 TS 14.5000 -62.3000 95 hurdat_atl main 425 425 O____________O hurdat_atl AL041898 14.5000 -62.2000 HU 95 2 14.5000 -62.5000 MH 105 12 329
1898249N11333 1898 37 NA CS NOT_NAMED 1898-09-12 03:00:00 TS 15.0324 -62.5677 main 478 416 P____________P AL041898 15.0700 -62.5151 HU 95 2 14.9572 -62.6730 MH 102 12 336
1898249N11333 1898 37 NA CS NOT_NAMED 1898-09-12 06:00:00 TS 15.6000 -62.8000 95 hurdat_atl main 416 354 O____________O hurdat_atl AL041898 15.7000 -62.8000 HU 95 2 15.4000 -62.8000 MH 100 12 335
1898249N11333 1898 37 NA CS NOT_NAMED 1898-09-12 09:00:00 TS 16.1542 -63.1058 main 347 287 P____________P AL041898 16.3425 -63.0800 HU 95 2 15.7777 -63.1573 MH 97 13 334
1898249N11333 1898 37 NA CS NOT_NAMED 1898-09-12 12:00:00 TS 16.7333 -63.3667 95 hurdat_atl main 287 244 O____________O hurdat_atl AL041898 17.0000 -63.3000 HU 95 2 16.2000 -63.5000 HU 95 13 342
1898249N11333 1898 37 NA CS NOT_NAMED 1898-09-12 15:00:00 TS 17.3516 -63.5118 main 239 212 P____________P AL041898 17.6425 -63.4302 HU 95 2 16.7699 -63.6749 HU 95 13 351
1898249N11333 1898 37 NA CS NOT_NAMED 1898-09-12 18:00:00 TS 18.0000 -63.5667 95 hurdat_atl main 212 211 O____________O hurdat_atl AL041898 18.3000 -63.5000 HU 95 2 17.4000 -63.7000 HU 95 14 357
1898249N11333 1898 37 NA CS NOT_NAMED 1898-09-12 21:00:00 TS 18.6966 -63.5701 main 213 213 P____________P AL041898 19.0450 -63.5576 HU 95 2 18.0000 -63.5952 HU 95 13 2
1898249N11333 1898 37 NA NA NOT_NAMED 1898-09-13 00:00:00 TS 19.3333 -63.5333 95 hurdat_atl main 242 242 O____________O hurdat_atl AL041898 19.7000 -63.6000 HU 95 2 18.6000 -63.4000 HU 95 11 5
1898249N11333 1898 37 NA NA NOT_NAMED 1898-09-13 03:00:00 TS 19.8067 -63.4802 main 270 270 P____________P AL041898 20.1100 -63.6426 HU 95 2 19.2001 -63.1555 HU 95 9 5
1898249N11333 1898 37 NA NA NOT_NAMED 1898-09-13 06:00:00 TS 20.2000 -63.4667 95 hurdat_atl main 298 298 O____________O hurdat_atl AL041898 20.4000 -63.7000 HU 95 2 19.8000 -63.0000 HU 95 8 354
1898249N11333 1898 37 NA NA NOT_NAMED 1898-09-13 09:00:00 TS 20.6125 -63.5656 main 323 323 P____________P AL041898 20.7000 -63.8000 HU 95 2 20.4375 -63.0969 HU 95 8 345
1898249N11333 1898 37 NA NA NOT_NAMED 1898-09-13 12:00:00 TS 21.0000 -63.7000 95 hurdat_atl main 352 352 O____________O hurdat_atl AL041898 21.0000 -63.9000 HU 95 2 21.0000 -63.3000 HU 95 8 345
1898249N11333 1898 37 NA NA NOT_NAMED 1898-09-13 15:00:00 TS 21.3650 -63.7835 main 384 384 P____________P AL041898 21.3500 -63.9501 HU 95 2 21.3950 -63.4502 HU 95 7 348
1898249N11333 1898 37 NA NA NOT_NAMED 1898-09-13 18:00:00 TS 21.7000 -63.8667 95 hurdat_atl main 409 409 O____________O hurdat_atl AL041898 21.7000 -64.0000 HU 95 2 21.7000 -63.6000 HU 95 7 344
1898249N11333 1898 37 NA NA NOT_NAMED 1898-09-13 21:00:00 TS 22.0050 -63.9759 main 435 435 P____________P AL041898 22.0075 -64.0925 HU 92 2 22.0000 -63.7427 HU 92 6 340
1898249N11333 1898 37 NA NA NOT_NAMED 1898-09-14 00:00:00 TS 22.3000 -64.1000 90 hurdat_atl main 463 463 O____________O hurdat_atl AL041898 22.3000 -64.2000 HU 90 2 22.3000 -63.9000 HU 90 7 339
1898249N11333 1898 37 NA NA NOT_NAMED 1898-09-14 03:00:00 TS 22.6116 -64.2209 main 491 491 P____________P AL041898 22.5925 -64.2852 HU 87 2 22.6500 -64.0925 HU 90 7 339
1898249N11333 1898 37 NA NA NOT_NAMED 1898-09-14 06:00:00 TS 22.9333 -64.3667 85 hurdat_atl main 518 518 O____________O hurdat_atl AL041898 22.9000 -64.4000 HU 85 2 23.0000 -64.3000 HU 90 8 335
1898249N11333 1898 37 NA NA NOT_NAMED 1898-09-14 09:00:00 TS 23.2892 -64.5715 main 557 557 P____________P AL041898 23.2726 -64.6072 HU 85 2 23.3225 -64.5001 HU 90 8 331
1898249N11333 1898 37 NA NA NOT_NAMED 1898-09-14 12:00:00 TS 23.6000 -64.7667 85 hurdat_atl main 587 587 O____________O hurdat_atl AL041898 23.6000 -64.8000 HU 85 2 23.6000 -64.7000 HU 90 6 331
1898249N11333 1898 37 NA NA NOT_NAMED 1898-09-14 15:00:00 TS 23.7866 -64.8769 main 608 608 P____________P AL041898 23.7724 -64.8578 HU 85 2 23.8150 -64.9151 HU 90 4 331
1898249N11333 1898 37 NA NA NOT_NAMED 1898-09-14 18:00:00 TS 23.9333 -64.9667 85 hurdat_atl main 618 618 O____________O hurdat_atl AL041898 23.9000 -64.9000 HU 85 2 24.0000 -65.1000 HU 90 4 330
1898249N11333 1898 37 NA NA NOT_NAMED 1898-09-14 21:00:00 TS 24.1308 -65.0925 main 639 639 P____________P AL041898 24.0925 -65.0350 HU 85 2 24.2074 -65.2076 HU 90 5 329
1898249N11333 1898 37 NA NA NOT_NAMED 1898-09-15 00:00:00 TS 24.3333 -65.2333 85 hurdat_atl main 661 661 O____________O hurdat_atl AL041898 24.3000 -65.2000 HU 85 2 24.4000 -65.3000 HU 90 5 326
1898249N11333 1898 37 NA NA NOT_NAMED 1898-09-15 03:00:00 TS 24.5242 -65.3833 main 682 682 P____________P AL041898 24.5075 -65.3500 HU 85 2 24.5575 -65.4500 HU 90 5 323
1898249N11333 1898 37 NA NA NOT_NAMED 1898-09-15 06:00:00 TS 24.7000 -65.5333 85 hurdat_atl main 704 704 O____________O hurdat_atl AL041898 24.7000 -65.5000 HU 85 2 24.7000 -65.6000 HU 90 4 323
1898249N11333 1898 37 NA NA NOT_NAMED 1898-09-15 09:00:00 TS 24.8449 -65.6518 main 715 715 P____________P AL041898 24.8500 -65.6426 HU 85 2 24.8348 -65.6703 HU 87 4 321
1898249N11333 1898 37 NA NA NOT_NAMED 1898-09-15 12:00:00 TS 25.0000 -65.8000 85 hurdat_atl main 731 731 O____________O hurdat_atl AL041898 25.0000 -65.8000 HU 85 2 25.0000 -65.8000 HU 85 5 316
1898249N11333 1898 37 NA NA NOT_NAMED 1898-09-15 15:00:00 TS 25.2067 -66.0324 main 741 737 P____________P AL041898 25.1925 -65.9925 HU 85 2 25.2351 -66.1124 HU 85 6 314
1898249N11333 1898 37 NA NA NOT_NAMED 1898-09-15 18:00:00 TS 25.4333 -66.3000 85 hurdat_atl main 748 748 O____________O hurdat_atl AL041898 25.4000 -66.2000 HU 85 2 25.5000 -66.5000 HU 85 6 314
1898249N11333 1898 37 NA NA NOT_NAMED 1898-09-15 21:00:00 TS 25.6499 -66.5451 main 760 760 P____________P AL041898 25.5999 -66.3926 HU 85 2 25.7499 -66.8501 HU 85 6 314
1898249N11333 1898 37 NA NA NOT_NAMED 1898-09-16 00:00:00 TS 25.8667 -66.8000 85 hurdat_atl main 776 772 O____________O hurdat_atl AL041898 25.8000 -66.6000 HU 85 2 26.0000 -67.2000 HU 85 7 312
1898249N11333 1898 37 NA NA NOT_NAMED 1898-09-16 03:00:00 TS 26.0833 -67.0859 main 784 781 P____________P AL041898 26.0000 -66.8500 HU 85 2 26.2500 -67.5576 HU 85 7 310
1898249N11333 1898 37 NA NA NOT_NAMED 1898-09-16 06:00:00 TS 26.3000 -67.3667 85 hurdat_atl main 794 794 O____________O hurdat_atl AL041898 26.2000 -67.1000 HU 85 2 26.5000 -67.9000 HU 85 6 312
1898249N11333 1898 37 NA NA NOT_NAMED 1898-09-16 09:00:00 TS 26.4991 -67.6053 main 807 800 P____________P AL041898 26.3849 -67.3077 HU 85 2 26.7273 -68.2004 HU 85 6 316
1898249N11333 1898 37 NA NA NOT_NAMED 1898-09-16 12:00:00 TS 26.7333 -67.8333 85 hurdat_atl main 810 810 O____________O hurdat_atl AL041898 26.6000 -67.5000 HU 85 2 27.0000 -68.5000 HU 85 7 322
1898249N11333 1898 37 NA NA NOT_NAMED 1898-09-16 15:00:00 TS 27.0366 -68.0735 main 816 816 P____________P AL041898 26.8624 -67.6853 HU 85 2 27.3850 -68.8498 HU 85 8 326
1898249N11333 1898 37 NA NA NOT_NAMED 1898-09-16 18:00:00 TS 27.4000 -68.3333 85 hurdat_atl main 840 834 O____________O hurdat_atl AL041898 27.2000 -67.9000 HU 85 2 27.8000 -69.2000 HU 85 9 327
1898249N11333 1898 37 NA NA NOT_NAMED 1898-09-16 21:00:00 TS 27.8016 -68.6259 main 861 855 P____________P AL041898 27.6276 -68.1923 HU 85 2 28.1498 -69.4931 HU 85 10 327
1898249N11333 1898 37 NA NA NOT_NAMED 1898-09-17 00:00:00 TS 28.2333 -68.9333 85 hurdat_atl main 884 884 O____________O hurdat_atl AL041898 28.1000 -68.5000 HU 85 2 28.5000 -69.8000 HU 85 10 327
1898249N11333 1898 37 NA NA NOT_NAMED 1898-09-17 03:00:00 TS 28.6617 -69.2533 main 916 907 P____________P AL041898 28.5425 -68.7726 HU 85 2 28.9002 -70.2147 HU 85 10 329
1898249N11333 1898 37 NA NA NOT_NAMED 1898-09-17 06:00:00 TS 29.1000 -69.5333 85 hurdat_atl main 907 855 O____________O hurdat_atl AL041898 29.0000 -69.0000 HU 85 2 29.3000 -70.6000 HU 85 10 333
1898249N11333 1898 37 NA NA NOT_NAMED 1898-09-17 09:00:00 TS 29.5399 -69.7598 main 855 810 P____________P AL041898 29.5000 -69.2023 HU 85 2 29.6199 -70.8750 HU 85 9 342
1898249N11333 1898 37 NA NA NOT_NAMED 1898-09-17 12:00:00 TS 30.0000 -69.8667 85 hurdat_atl main 810 780 O____________O hurdat_atl AL041898 30.0000 -69.3000 HU 85 2 30.0000 -71.0000 HU 85 10 356
1898249N11333 1898 37 NA NA NOT_NAMED 1898-09-17 15:00:00 TS 30.4875 -69.8194 main 780 752 P____________P AL041898 30.4499 -69.2527 HU 85 2 30.5625 -70.9529 HU 87 10 10
1898249N11333 1898 37 NA NA NOT_NAMED 1898-09-17 18:00:00 TS 31.0000 -69.6667 85 hurdat_atl main 752 732 O____________O hurdat_atl AL041898 30.9000 -69.1000 HU 85 2 31.2000 -70.8000 HU 90 11 14
1898249N11333 1898 37 NA NA NOT_NAMED 1898-09-17 21:00:00 TS 31.5232 -69.5228 main 732 710 P____________P AL041898 31.3849 -68.9371 HU 85 2 31.7998 -70.6942 HU 90 11 16
1898249N11333 1898 37 NA NA NOT_NAMED 1898-09-18 00:00:00 TS 32.0667 -69.3000 85 hurdat_atl main 703 693 O____________O hurdat_atl AL041898 31.9000 -68.7000 HU 85 2 32.4000 -70.5000 HU 90 12 23
1898249N11333 1898 37 NA NA NOT_NAMED 1898-09-18 03:00:00 TS 32.6359 -68.9659 main 694 690 P____________P AL041898 32.4500 -68.3800 HU 85 2 33.0077 -70.1378 HU 92 13 29
1898249N11333 1898 37 NA NA NOT_NAMED 1898-09-18 06:00:00 TS 33.2000 -68.5667 85 hurdat_atl main 694 692 O____________O hurdat_atl AL041898 33.0000 -68.0000 HU 85 2 33.6000 -69.7000 HU 95 12 30
1898249N11333 1898 37 NA NA NOT_NAMED 1898-09-18 09:00:00 TS 33.7005 -68.2391 main 705 701 P____________P AL041898 33.4920 -67.6436 HU 85 2 34.1176 -69.4302 HU 97 12 33
1898249N11333 1898 37 NA NA NOT_NAMED 1898-09-18 12:00:00 TS 34.2333 -67.7667 85 hurdat_atl main 721 721 O____________O hurdat_atl AL041898 34.0000 -67.2000 HU 85 2 34.7000 -68.9000 MH 100 16 42
1898249N11333 1898 37 NA NA NOT_NAMED 1898-09-18 15:00:00 TS 34.8659 -66.9655 main 775 768 P____________P AL041898 34.5703 -66.5799 HU 85 2 35.4570 -67.7366 MH 102 20 47
1898249N11333 1898 37 NA NA NOT_NAMED 1898-09-18 18:00:00 TS 35.5667 -66.0333 85 hurdat_atl main 762 724 O____________O hurdat_atl AL041898 35.2000 -65.9000 HU 85 2 36.3000 -66.3000 MH 105 945 20 45
1898249N11333 1898 37 NA NA NOT_NAMED 1898-09-18 21:00:00 TS 36.2952 -65.2176 main 729 706 P____________P AL041898 35.8695 -65.2985 HU 85 2 37.1465 -65.0557 MH 105 946 19 42
1898249N11333 1898 37 NA NA NOT_NAMED 1898-09-19 00:00:00 TS 36.9818 -64.4273 85 hurdat_atl main 709 670 O____________O hurdat_atl AL041898 36.6000 -64.7000 HU 85 2 38.0000 -63.7000 MH 105 947 18 42
1898249N11333 1898 37 NA NA NOT_NAMED 1898-09-19 03:00:00 TS 37.6573 -63.6609 main 659 607 P____________P AL041898 37.3697 -64.0635 HU 82 1 38.8195 -62.0890 MH 105 18 38
1898249N11333 1898 37 NA NA NOT_NAMED 1898-09-19 06:00:00 TS 38.3556 -63.0556 80 hurdat_atl main 596 542 O____________O hurdat_atl AL041898 38.2000 -63.4000 HU 80 1 39.6000 -60.3000 MH 105 16 28
1898249N11333 1898 37 NA NA NOT_NAMED 1898-09-19 09:00:00 TS 39.0544 -62.7269 main 535 479 P_____________ AL041898 39.0544 -62.7269 HU 77 1 MH 18 26
1898249N11333 1898 37 NA NA NOT_NAMED 1898-09-19 12:00:00 TS 40.0000 -62.0000 75 hurdat_atl main 475 425 O_____________ hurdat_atl AL041898 40.0000 -62.0000 HU 75 1 23 31
1898249N11333 1898 37 NA NA NOT_NAMED 1898-09-19 15:00:00 TS 41.0170 -61.1905 main 425 344 P_____________ AL041898 41.0170 -61.1905 HU 70 1 25 30
1898249N11333 1898 37 NA NA NOT_NAMED 1898-09-19 18:00:00 TS 42.2000 -60.3000 65 hurdat_atl main 336 232 O_____________ hurdat_atl AL041898 42.2000 -60.3000 HU 65 1 29 29
1898249N11333 1898 37 NA NA NOT_NAMED 1898-09-19 21:00:00 TS 43.5600 -59.3194 main 227 159 P_____________ AL041898 43.5600 -59.3194 HU 60 0 32 27
1898249N11333 1898 37 NA NA NOT_NAMED 1898-09-20 00:00:00 ET 45.1000 -58.3000 55 hurdat_atl main 160 96 O_____________ hurdat_atl AL041898 45.1000 -58.3000 EX 55 -4 35 24
1898249N11333 1898 37 NA NA NOT_NAMED 1898-09-20 03:00:00 ET 46.7540 -57.3087 main 83 0 P_____________ AL041898 46.7540 -57.3087 EX 50 -4 37 22
1898249N11333 1898 37 NA NA NOT_NAMED 1898-09-20 06:00:00 ET 48.5000 -56.3000 45 hurdat_atl main 0 0 O_____________ hurdat_atl AL041898 48.5000 -56.3000 EX 45 -4 38 21
1898249N11333 1898 37 NA NA NOT_NAMED 1898-09-20 09:00:00 ET 50.2546 -55.2372 main 56 56 P_____________ AL041898 50.2546 -55.2372 EX 42 -4 38 22
1898249N11333 1898 37 NA NA NOT_NAMED 1898-09-20 12:00:00 ET 52.0000 -54.1000 40 hurdat_atl main 109 O_____________ hurdat_atl AL041898 52.0000 -54.1000 EX 40 -4 38 22

About IBTrACS Database

This database is a web-friendly format of International Best Track Archive for Climate Stewardship (IBTrACS), a global best track data archive curated by NOAA dating back to 1842.

Updated: 2021-11-26